sensor_id;sensor_type;location;lat;lon;timestamp;temperature;humidity
48551;DHT22;34397;51.176;6.738;2023-03-01T00:01:40;3.90;49.70
48551;DHT22;34397;51.176;6.738;2023-03-01T00:04:12;3.90;49.70
48551;DHT22;34397;51.176;6.738;2023-03-01T00:06:44;4.00;49.60
48551;DHT22;34397;51.176;6.738;2023-03-01T00:09:18;3.90;49.70
48551;DHT22;34397;51.176;6.738;2023-03-01T00:11:50;3.90;49.70
48551;DHT22;34397;51.176;6.738;2023-03-01T00:14:21;3.90;49.70
48551;DHT22;34397;51.176;6.738;2023-03-01T00:16:54;3.90;49.70
48551;DHT22;34397;51.176;6.738;2023-03-01T00:19:26;3.90;49.60
48551;DHT22;34397;51.176;6.738;2023-03-01T00:21:57;3.90;49.70
48551;DHT22;34397;51.176;6.738;2023-03-01T00:24:31;3.90;49.60
48551;DHT22;34397;51.176;6.738;2023-03-01T00:27:03;3.90;49.60
48551;DHT22;34397;51.176;6.738;2023-03-01T00:29:34;3.80;49.50
48551;DHT22;34397;51.176;6.738;2023-03-01T00:32:06;3.80;49.50
48551;DHT22;34397;51.176;6.738;2023-03-01T00:34:38;3.80;49.40
48551;DHT22;34397;51.176;6.738;2023-03-01T00:37:10;3.80;49.40
48551;DHT22;34397;51.176;6.738;2023-03-01T00:39:43;3.70;49.30
48551;DHT22;34397;51.176;6.738;2023-03-01T00:42:15;3.60;49.30
48551;DHT22;34397;51.176;6.738;2023-03-01T00:44:48;3.60;49.50
48551;DHT22;34397;51.176;6.738;2023-03-01T00:47:19;3.50;49.40
48551;DHT22;34397;51.176;6.738;2023-03-01T00:49:51;3.40;49.60
48551;DHT22;34397;51.176;6.738;2023-03-01T00:52:23;3.40;49.90
48551;DHT22;34397;51.176;6.738;2023-03-01T00:54:56;3.40;50.10
48551;DHT22;34397;51.176;6.738;2023-03-01T00:57:28;3.30;50.10
48551;DHT22;34397;51.176;6.738;2023-03-01T01:00:00;3.30;50.50
48551;DHT22;34397;51.176;6.738;2023-03-01T01:02:32;3.20;50.60
48551;DHT22;34397;51.176;6.738;2023-03-01T01:05:05;3.20;50.70
48551;DHT22;34397;51.176;6.738;2023-03-01T01:07:37;3.20;50.90
48551;DHT22;34397;51.176;6.738;2023-03-01T01:10:11;3.20;51.00
48551;DHT22;34397;51.176;6.738;2023-03-01T01:12:47;3.10;51.00
48551;DHT22;34397;51.176;6.738;2023-03-01T01:15:19;3.20;51.30
48551;DHT22;34397;51.176;6.738;2023-03-01T01:17:51;3.20;51.30
48551;DHT22;34397;51.176;6.738;2023-03-01T01:20:22;3.10;51.20
48551;DHT22;34397;51.176;6.738;2023-03-01T01:22:54;3.10;51.20
48551;DHT22;34397;51.176;6.738;2023-03-01T01:25:27;3.10;51.10
48551;DHT22;34397;51.176;6.738;2023-03-01T01:27:59;3.10;51.10
48551;DHT22;34397;51.176;6.738;2023-03-01T01:30:31;3.10;51.00
48551;DHT22;34397;51.176;6.738;2023-03-01T01:33:03;3.00;50.80
48551;DHT22;34397;51.176;6.738;2023-03-01T01:35:35;3.00;50.70
48551;DHT22;34397;51.176;6.738;2023-03-01T01:38:07;2.90;50.70
48551;DHT22;34397;51.176;6.738;2023-03-01T01:40:44;2.80;51.00
48551;DHT22;34397;51.176;6.738;2023-03-01T01:43:20;2.70;51.20
48551;DHT22;34397;51.176;6.738;2023-03-01T01:45:55;2.60;51.50
48551;DHT22;34397;51.176;6.738;2023-03-01T01:48:34;2.50;51.50
48551;DHT22;34397;51.176;6.738;2023-03-01T01:51:13;2.50;51.80
48551;DHT22;34397;51.176;6.738;2023-03-01T01:53:49;2.40;52.20
48551;DHT22;34397;51.176;6.738;2023-03-01T01:56:26;2.40;52.40
48551;DHT22;34397;51.176;6.738;2023-03-01T01:58:59;2.30;52.30
48551;DHT22;34397;51.176;6.738;2023-03-01T02:01:31;2.40;52.50
48551;DHT22;34397;51.176;6.738;2023-03-01T02:04:03;2.30;52.60
48551;DHT22;34397;51.176;6.738;2023-03-01T02:06:39;2.20;52.70
48551;DHT22;34397;51.176;6.738;2023-03-01T02:09:15;2.20;52.80
48551;DHT22;34397;51.176;6.738;2023-03-01T02:11:52;2.20;52.80
48551;DHT22;34397;51.176;6.738;2023-03-01T02:14:25;2.20;53.00
48551;DHT22;34397;51.176;6.738;2023-03-01T02:16:57;2.20;53.20
48551;DHT22;34397;51.176;6.738;2023-03-01T02:19:37;2.20;53.30
48551;DHT22;34397;51.176;6.738;2023-03-01T02:22:20;2.20;53.30
48551;DHT22;34397;51.176;6.738;2023-03-01T02:25:03;2.20;53.60
48551;DHT22;34397;51.176;6.738;2023-03-01T02:27:48;2.20;53.70
48551;DHT22;34397;51.176;6.738;2023-03-01T02:30:25;2.20;53.70
48551;DHT22;34397;51.176;6.738;2023-03-01T02:32:59;2.20;53.80
48551;DHT22;34397;51.176;6.738;2023-03-01T02:35:35;2.20;53.90
48551;DHT22;34397;51.176;6.738;2023-03-01T02:38:09;2.20;53.90
48551;DHT22;34397;51.176;6.738;2023-03-01T02:40:41;2.30;53.80
48551;DHT22;34397;51.176;6.738;2023-03-01T02:43:16;2.30;53.70
48551;DHT22;34397;51.176;6.738;2023-03-01T02:45:51;2.30;53.60
48551;DHT22;34397;51.176;6.738;2023-03-01T02:48:24;2.30;53.60
48551;DHT22;34397;51.176;6.738;2023-03-01T02:51:04;2.30;53.70
48551;DHT22;34397;51.176;6.738;2023-03-01T02:53:45;2.30;53.20
48551;DHT22;34397;51.176;6.738;2023-03-01T02:56:21;2.30;53.30
48551;DHT22;34397;51.176;6.738;2023-03-01T02:58:53;2.20;53.40
48551;DHT22;34397;51.176;6.738;2023-03-01T03:01:32;2.20;53.40
48551;DHT22;34397;51.176;6.738;2023-03-01T03:04:09;2.20;53.40
48551;DHT22;34397;51.176;6.738;2023-03-01T03:06:43;2.20;53.40
48551;DHT22;34397;51.176;6.738;2023-03-01T03:09:16;2.10;53.40
48551;DHT22;34397;51.176;6.738;2023-03-01T03:11:48;2.10;53.50
48551;DHT22;34397;51.176;6.738;2023-03-01T03:14:20;2.10;53.70
48551;DHT22;34397;51.176;6.738;2023-03-01T03:16:53;2.00;53.60
48551;DHT22;34397;51.176;6.738;2023-03-01T03:19:25;2.00;53.90
48551;DHT22;34397;51.176;6.738;2023-03-01T03:21:57;2.00;54.00
48551;DHT22;34397;51.176;6.738;2023-03-01T03:24:29;1.90;54.10
48551;DHT22;34397;51.176;6.738;2023-03-01T03:27:08;1.90;53.60
48551;DHT22;34397;51.176;6.738;2023-03-01T03:29:40;1.90;54.20
48551;DHT22;34397;51.176;6.738;2023-03-01T03:32:13;1.90;54.20
48551;DHT22;34397;51.176;6.738;2023-03-01T03:34:45;1.90;54.10
48551;DHT22;34397;51.176;6.738;2023-03-01T03:37:17;1.80;54.10
48551;DHT22;34397;51.176;6.738;2023-03-01T03:40:03;1.80;54.20
48551;DHT22;34397;51.176;6.738;2023-03-01T03:42:45;1.70;54.30
48551;DHT22;34397;51.176;6.738;2023-03-01T03:45:17;1.70;53.70
48551;DHT22;34397;51.176;6.738;2023-03-01T03:47:50;1.60;54.70
48551;DHT22;34397;51.176;6.738;2023-03-01T03:50:22;1.60;55.00
48551;DHT22;34397;51.176;6.738;2023-03-01T03:52:54;1.60;55.20
48551;DHT22;34397;51.176;6.738;2023-03-01T03:55:26;1.60;55.50
48551;DHT22;34397;51.176;6.738;2023-03-01T03:58:02;1.60;55.70
48551;DHT22;34397;51.176;6.738;2023-03-01T04:00:38;1.70;55.70
48551;DHT22;34397;51.176;6.738;2023-03-01T04:03:14;1.60;55.50
48551;DHT22;34397;51.176;6.738;2023-03-01T04:05:47;1.70;55.30
48551;DHT22;34397;51.176;6.738;2023-03-01T04:08:22;1.60;55.20
48551;DHT22;34397;51.176;6.738;2023-03-01T04:10:58;1.60;55.20
48551;DHT22;34397;51.176;6.738;2023-03-01T04:13:53;1.60;55.10
48551;DHT22;34397;51.176;6.738;2023-03-01T04:16:26;1.50;55.40
48551;DHT22;34397;51.176;6.738;2023-03-01T04:18:59;1.50;55.50
48551;DHT22;34397;51.176;6.738;2023-03-01T04:21:31;1.50;55.70
48551;DHT22;34397;51.176;6.738;2023-03-01T04:24:04;1.50;55.70
48551;DHT22;34397;51.176;6.738;2023-03-01T04:26:37;1.50;55.90
48551;DHT22;34397;51.176;6.738;2023-03-01T04:29:09;1.50;55.90
48551;DHT22;34397;51.176;6.738;2023-03-01T04:31:40;1.50;56.00
48551;DHT22;34397;51.176;6.738;2023-03-01T04:34:14;1.40;56.20
48551;DHT22;34397;51.176;6.738;2023-03-01T04:36:46;1.50;56.20
48551;DHT22;34397;51.176;6.738;2023-03-01T04:39:18;1.40;56.10
48551;DHT22;34397;51.176;6.738;2023-03-01T04:41:50;1.50;56.30
48551;DHT22;34397;51.176;6.738;2023-03-01T04:44:22;1.40;56.20
48551;DHT22;34397;51.176;6.738;2023-03-01T04:46:54;1.40;56.40
48551;DHT22;34397;51.176;6.738;2023-03-01T04:49:28;1.40;56.20
48551;DHT22;34397;51.176;6.738;2023-03-01T04:51:59;1.40;56.10
48551;DHT22;34397;51.176;6.738;2023-03-01T04:54:33;1.40;56.20
48551;DHT22;34397;51.176;6.738;2023-03-01T04:57:05;1.40;56.20
48551;DHT22;34397;51.176;6.738;2023-03-01T04:59:37;1.30;56.00
48551;DHT22;34397;51.176;6.738;2023-03-01T05:02:09;1.30;56.10
48551;DHT22;34397;51.176;6.738;2023-03-01T05:04:42;1.30;56.20
48551;DHT22;34397;51.176;6.738;2023-03-01T05:07:14;1.20;56.30
48551;DHT22;34397;51.176;6.738;2023-03-01T05:09:49;1.20;56.50
48551;DHT22;34397;51.176;6.738;2023-03-01T05:12:21;1.20;56.50
48551;DHT22;34397;51.176;6.738;2023-03-01T05:14:53;1.20;56.50
48551;DHT22;34397;51.176;6.738;2023-03-01T05:17:25;1.20;56.60
48551;DHT22;34397;51.176;6.738;2023-03-01T05:19:58;1.10;56.50
48551;DHT22;34397;51.176;6.738;2023-03-01T05:22:31;1.10;56.60
48551;DHT22;34397;51.176;6.738;2023-03-01T05:25:04;1.10;56.70
48551;DHT22;34397;51.176;6.738;2023-03-01T05:27:37;1.10;56.90
48551;DHT22;34397;51.176;6.738;2023-03-01T05:30:12;1.10;57.00
48551;DHT22;34397;51.176;6.738;2023-03-01T05:32:47;1.10;56.90
48551;DHT22;34397;51.176;6.738;2023-03-01T05:35:21;1.00;57.00
48551;DHT22;34397;51.176;6.738;2023-03-01T05:37:53;1.00;56.90
48551;DHT22;34397;51.176;6.738;2023-03-01T05:40:25;1.10;57.00
48551;DHT22;34397;51.176;6.738;2023-03-01T05:42:57;1.00;57.20
48551;DHT22;34397;51.176;6.738;2023-03-01T05:45:29;1.00;57.80
48551;DHT22;34397;51.176;6.738;2023-03-01T05:48:03;1.00;57.40
48551;DHT22;34397;51.176;6.738;2023-03-01T05:50:39;1.00;57.30
48551;DHT22;34397;51.176;6.738;2023-03-01T05:53:13;1.00;57.40
48551;DHT22;34397;51.176;6.738;2023-03-01T05:55:47;1.00;57.60
48551;DHT22;34397;51.176;6.738;2023-03-01T05:58:20;0.90;57.60
48551;DHT22;34397;51.176;6.738;2023-03-01T06:00:52;0.90;57.50
48551;DHT22;34397;51.176;6.738;2023-03-01T06:03:24;1.00;57.80
48551;DHT22;34397;51.176;6.738;2023-03-01T06:05:57;1.00;57.60
48551;DHT22;34397;51.176;6.738;2023-03-01T06:08:30;1.00;57.50
48551;DHT22;34397;51.176;6.738;2023-03-01T06:11:02;1.00;57.50
48551;DHT22;34397;51.176;6.738;2023-03-01T06:13:34;1.00;57.50
48551;DHT22;34397;51.176;6.738;2023-03-01T06:16:07;1.00;57.30
48551;DHT22;34397;51.176;6.738;2023-03-01T06:18:40;1.00;57.30
48551;DHT22;34397;51.176;6.738;2023-03-01T06:21:14;1.00;57.30
48551;DHT22;34397;51.176;6.738;2023-03-01T06:23:45;1.00;57.10
48551;DHT22;34397;51.176;6.738;2023-03-01T06:26:17;1.00;57.20
48551;DHT22;34397;51.176;6.738;2023-03-01T06:28:49;1.00;57.20
48551;DHT22;34397;51.176;6.738;2023-03-01T06:31:21;1.00;57.20
48551;DHT22;34397;51.176;6.738;2023-03-01T06:33:53;1.00;57.10
48551;DHT22;34397;51.176;6.738;2023-03-01T06:36:26;1.00;57.40
48551;DHT22;34397;51.176;6.738;2023-03-01T06:38:58;1.10;57.20
48551;DHT22;34397;51.176;6.738;2023-03-01T06:41:30;1.10;57.10
48551;DHT22;34397;51.176;6.738;2023-03-01T06:44:03;1.10;57.10
48551;DHT22;34397;51.176;6.738;2023-03-01T06:46:35;1.10;57.10
48551;DHT22;34397;51.176;6.738;2023-03-01T06:49:07;1.00;56.90
48551;DHT22;34397;51.176;6.738;2023-03-01T06:51:41;1.10;57.10
48551;DHT22;34397;51.176;6.738;2023-03-01T06:54:13;1.10;57.20
48551;DHT22;34397;51.176;6.738;2023-03-01T06:56:46;1.10;57.20
48551;DHT22;34397;51.176;6.738;2023-03-01T06:59:19;1.20;56.80
48551;DHT22;34397;51.176;6.738;2023-03-01T07:01:50;1.20;56.80
48551;DHT22;34397;51.176;6.738;2023-03-01T07:04:22;1.20;56.90
48551;DHT22;34397;51.176;6.738;2023-03-01T07:06:55;1.20;56.90
48551;DHT22;34397;51.176;6.738;2023-03-01T07:09:27;1.20;56.60
48551;DHT22;34397;51.176;6.738;2023-03-01T07:12:00;1.20;56.60
48551;DHT22;34397;51.176;6.738;2023-03-01T07:14:32;1.30;56.50
48551;DHT22;34397;51.176;6.738;2023-03-01T07:17:03;1.30;56.50
48551;DHT22;34397;51.176;6.738;2023-03-01T07:19:35;1.30;56.30
48551;DHT22;34397;51.176;6.738;2023-03-01T07:22:08;1.30;56.30
48551;DHT22;34397;51.176;6.738;2023-03-01T07:24:40;1.30;56.40
48551;DHT22;34397;51.176;6.738;2023-03-01T07:27:12;1.30;56.30
48551;DHT22;34397;51.176;6.738;2023-03-01T07:29:44;1.30;56.30
48551;DHT22;34397;51.176;6.738;2023-03-01T07:32:16;1.30;56.20
48551;DHT22;34397;51.176;6.738;2023-03-01T07:34:48;1.30;56.10
48551;DHT22;34397;51.176;6.738;2023-03-01T07:37:21;1.40;56.20
48551;DHT22;34397;51.176;6.738;2023-03-01T07:39:53;1.40;56.10
48551;DHT22;34397;51.176;6.738;2023-03-01T07:42:25;1.40;56.10
48551;DHT22;34397;51.176;6.738;2023-03-01T07:44:57;1.40;56.00
48551;DHT22;34397;51.176;6.738;2023-03-01T07:47:29;1.40;55.90
48551;DHT22;34397;51.176;6.738;2023-03-01T07:50:08;1.50;55.90
48551;DHT22;34397;51.176;6.738;2023-03-01T07:52:44;1.60;55.60
48551;DHT22;34397;51.176;6.738;2023-03-01T07:55:16;1.60;55.40
48551;DHT22;34397;51.176;6.738;2023-03-01T07:57:48;1.70;55.40
48551;DHT22;34397;51.176;6.738;2023-03-01T08:00:20;1.70;55.30
48551;DHT22;34397;51.176;6.738;2023-03-01T08:02:52;1.70;55.10
48551;DHT22;34397;51.176;6.738;2023-03-01T08:05:24;1.80;55.00
48551;DHT22;34397;51.176;6.738;2023-03-01T08:07:57;1.80;54.80
48551;DHT22;34397;51.176;6.738;2023-03-01T08:10:29;1.80;54.50
48551;DHT22;34397;51.176;6.738;2023-03-01T08:13:01;1.90;54.60
48551;DHT22;34397;51.176;6.738;2023-03-01T08:15:33;1.90;54.50
48551;DHT22;34397;51.176;6.738;2023-03-01T08:18:05;2.00;54.40
48551;DHT22;34397;51.176;6.738;2023-03-01T08:20:37;2.00;54.20
48551;DHT22;34397;51.176;6.738;2023-03-01T08:23:10;2.00;54.30
48551;DHT22;34397;51.176;6.738;2023-03-01T08:25:42;2.10;54.30
48551;DHT22;34397;51.176;6.738;2023-03-01T08:28:14;2.10;54.00
48551;DHT22;34397;51.176;6.738;2023-03-01T08:30:46;2.20;53.90
48551;DHT22;34397;51.176;6.738;2023-03-01T08:33:17;2.20;54.40
48551;DHT22;34397;51.176;6.738;2023-03-01T08:35:49;2.20;53.70
48551;DHT22;34397;51.176;6.738;2023-03-01T08:38:22;2.30;53.40
48551;DHT22;34397;51.176;6.738;2023-03-01T08:40:54;2.30;53.40
48551;DHT22;34397;51.176;6.738;2023-03-01T08:43:26;2.40;53.40
48551;DHT22;34397;51.176;6.738;2023-03-01T08:45:58;2.40;53.10
48551;DHT22;34397;51.176;6.738;2023-03-01T08:48:30;2.40;53.00
48551;DHT22;34397;51.176;6.738;2023-03-01T08:51:09;2.50;52.90
48551;DHT22;34397;51.176;6.738;2023-03-01T08:53:43;2.60;52.80
48551;DHT22;34397;51.176;6.738;2023-03-01T08:56:16;2.60;52.60
48551;DHT22;34397;51.176;6.738;2023-03-01T08:58:49;2.70;52.40
48551;DHT22;34397;51.176;6.738;2023-03-01T09:01:21;2.60;52.50
48551;DHT22;34397;51.176;6.738;2023-03-01T09:03:53;2.70;52.50
48551;DHT22;34397;51.176;6.738;2023-03-01T09:06:25;2.80;52.40
48551;DHT22;34397;51.176;6.738;2023-03-01T09:08:58;2.90;51.90
48551;DHT22;34397;51.176;6.738;2023-03-01T09:11:31;2.90;51.80
48551;DHT22;34397;51.176;6.738;2023-03-01T09:14:05;2.90;51.50
48551;DHT22;34397;51.176;6.738;2023-03-01T09:16:37;3.00;51.30
48551;DHT22;34397;51.176;6.738;2023-03-01T09:19:08;3.10;51.10
48551;DHT22;34397;51.176;6.738;2023-03-01T09:21:41;3.10;50.90
48551;DHT22;34397;51.176;6.738;2023-03-01T09:24:24;3.20;50.80
48551;DHT22;34397;51.176;6.738;2023-03-01T09:26:56;3.20;50.30
48551;DHT22;34397;51.176;6.738;2023-03-01T09:29:28;3.30;50.40
48551;DHT22;34397;51.176;6.738;2023-03-01T09:32:00;3.30;50.30
48551;DHT22;34397;51.176;6.738;2023-03-01T09:34:32;3.40;50.10
48551;DHT22;34397;51.176;6.738;2023-03-01T09:37:24;3.40;49.80
48551;DHT22;34397;51.176;6.738;2023-03-01T09:39:57;3.50;49.50
48551;DHT22;34397;51.176;6.738;2023-03-01T09:42:30;3.50;49.50
48551;DHT22;34397;51.176;6.738;2023-03-01T09:45:05;3.60;49.60
48551;DHT22;34397;51.176;6.738;2023-03-01T09:47:38;3.60;49.40
48551;DHT22;34397;51.176;6.738;2023-03-01T09:50:11;3.60;49.40
48551;DHT22;34397;51.176;6.738;2023-03-01T09:52:50;3.70;49.60
48551;DHT22;34397;51.176;6.738;2023-03-01T09:55:31;3.80;48.90
48551;DHT22;34397;51.176;6.738;2023-03-01T10:01:23;3.80;48.80
48551;DHT22;34397;51.176;6.738;2023-03-01T10:04:12;3.90;48.00
48551;DHT22;34397;51.176;6.738;2023-03-01T10:07:06;3.90;48.10
48551;DHT22;34397;51.176;6.738;2023-03-01T10:09:48;3.90;48.20
48551;DHT22;34397;51.176;6.738;2023-03-01T10:12:25;4.00;48.20
48551;DHT22;34397;51.176;6.738;2023-03-01T10:15:00;4.10;47.90
48551;DHT22;34397;51.176;6.738;2023-03-01T10:17:38;4.10;47.70
48551;DHT22;34397;51.176;6.738;2023-03-01T10:20:22;4.20;47.40
48551;DHT22;34397;51.176;6.738;2023-03-01T10:22:55;4.30;47.10
48551;DHT22;34397;51.176;6.738;2023-03-01T10:25:41;4.30;47.50
48551;DHT22;34397;51.176;6.738;2023-03-01T10:28:26;4.40;47.40
48551;DHT22;34397;51.176;6.738;2023-03-01T10:31:03;4.50;47.00
48551;DHT22;34397;51.176;6.738;2023-03-01T10:33:35;4.50;46.80
48551;DHT22;34397;51.176;6.738;2023-03-01T10:36:09;4.60;47.30
48551;DHT22;34397;51.176;6.738;2023-03-01T10:38:50;4.70;46.40
48551;DHT22;34397;51.176;6.738;2023-03-01T10:41:25;4.80;46.10
48551;DHT22;34397;51.176;6.738;2023-03-01T10:43:59;4.80;46.40
48551;DHT22;34397;51.176;6.738;2023-03-01T10:46:33;4.90;46.00
48551;DHT22;34397;51.176;6.738;2023-03-01T10:49:08;5.00;45.90
48551;DHT22;34397;51.176;6.738;2023-03-01T10:51:46;5.20;47.10
48551;DHT22;34397;51.176;6.738;2023-03-01T10:54:22;5.50;47.40
48551;DHT22;34397;51.176;6.738;2023-03-01T10:56:58;6.10;46.70
48551;DHT22;34397;51.176;6.738;2023-03-01T10:59:34;6.70;46.40
48551;DHT22;34397;51.176;6.738;2023-03-01T11:02:16;7.40;44.40
48551;DHT22;34397;51.176;6.738;2023-03-01T11:04:57;8.20;44.30
48551;DHT22;34397;51.176;6.738;2023-03-01T11:07:30;8.90;42.50
48551;DHT22;34397;51.176;6.738;2023-03-01T11:10:20;9.60;41.70
48551;DHT22;34397;51.176;6.738;2023-03-01T11:13:06;10.40;39.80
48551;DHT22;34397;51.176;6.738;2023-03-01T11:15:40;11.10;37.70
48551;DHT22;34397;51.176;6.738;2023-03-01T11:18:20;11.60;35.90
48551;DHT22;34397;51.176;6.738;2023-03-01T11:20:55;12.20;34.60
48551;DHT22;34397;51.176;6.738;2023-03-01T11:23:28;12.90;34.00
48551;DHT22;34397;51.176;6.738;2023-03-01T11:26:04;13.40;33.20
48551;DHT22;34397;51.176;6.738;2023-03-01T11:28:40;13.90;31.70
48551;DHT22;34397;51.176;6.738;2023-03-01T11:31:15;14.40;32.10
48551;DHT22;34397;51.176;6.738;2023-03-01T11:33:53;14.90;31.60
48551;DHT22;34397;51.176;6.738;2023-03-01T11:36:31;15.40;30.00
48551;DHT22;34397;51.176;6.738;2023-03-01T11:39:17;15.90;29.90
48551;DHT22;34397;51.176;6.738;2023-03-01T11:42:01;16.20;29.20
48551;DHT22;34397;51.176;6.738;2023-03-01T11:44:37;16.50;29.00
48551;DHT22;34397;51.176;6.738;2023-03-01T11:47:24;16.90;29.20
48551;DHT22;34397;51.176;6.738;2023-03-01T11:50:19;17.30;28.00
48551;DHT22;34397;51.176;6.738;2023-03-01T11:53:06;17.60;27.20
48551;DHT22;34397;51.176;6.738;2023-03-01T11:55:59;17.90;27.50
48551;DHT22;34397;51.176;6.738;2023-03-01T11:58:49;18.10;27.10
48551;DHT22;34397;51.176;6.738;2023-03-01T12:01:36;18.40;26.90
48551;DHT22;34397;51.176;6.738;2023-03-01T12:04:35;18.60;26.90
48551;DHT22;34397;51.176;6.738;2023-03-01T12:07:25;18.80;26.60
48551;DHT22;34397;51.176;6.738;2023-03-01T12:10:21;19.10;26.50
48551;DHT22;34397;51.176;6.738;2023-03-01T12:13:06;19.30;25.90
48551;DHT22;34397;51.176;6.738;2023-03-01T12:16:06;19.50;26.30
48551;DHT22;34397;51.176;6.738;2023-03-01T12:19:08;19.60;26.30
48551;DHT22;34397;51.176;6.738;2023-03-01T12:22:03;19.90;26.20
48551;DHT22;34397;51.176;6.738;2023-03-01T12:28:04;20.20;25.70
48551;DHT22;34397;51.176;6.738;2023-03-01T12:30:56;20.40;25.70
48551;DHT22;34397;51.176;6.738;2023-03-01T12:33:44;20.60;25.50
48551;DHT22;34397;51.176;6.738;2023-03-01T12:36:46;20.70;25.30
48551;DHT22;34397;51.176;6.738;2023-03-01T12:39:34;20.70;25.20
48551;DHT22;34397;51.176;6.738;2023-03-01T12:42:21;20.80;25.00
48551;DHT22;34397;51.176;6.738;2023-03-01T12:45:16;20.90;25.10
48551;DHT22;34397;51.176;6.738;2023-03-01T12:48:22;21.00;25.00
48551;DHT22;34397;51.176;6.738;2023-03-01T12:51:01;21.00;24.60
48551;DHT22;34397;51.176;6.738;2023-03-01T12:53:40;21.10;24.60
48551;DHT22;34397;51.176;6.738;2023-03-01T12:56:18;21.10;24.70
48551;DHT22;34397;51.176;6.738;2023-03-01T12:59:00;20.60;25.10
48551;DHT22;34397;51.176;6.738;2023-03-01T13:01:42;20.00;25.60
48551;DHT22;34397;51.176;6.738;2023-03-01T13:04:27;19.70;25.80
48551;DHT22;34397;51.176;6.738;2023-03-01T13:07:16;19.80;25.80
48551;DHT22;34397;51.176;6.738;2023-03-01T13:10:04;20.00;25.50
48551;DHT22;34397;51.176;6.738;2023-03-01T13:12:52;20.30;25.60
48551;DHT22;34397;51.176;6.738;2023-03-01T13:15:42;20.40;25.60
48551;DHT22;34397;51.176;6.738;2023-03-01T13:18:32;20.60;25.30
48551;DHT22;34397;51.176;6.738;2023-03-01T13:21:05;20.70;25.40
48551;DHT22;34397;51.176;6.738;2023-03-01T13:23:38;20.80;25.10
48551;DHT22;34397;51.176;6.738;2023-03-01T13:26:13;20.80;24.90
48551;DHT22;34397;51.176;6.738;2023-03-01T13:28:57;20.90;25.10
48551;DHT22;34397;51.176;6.738;2023-03-01T13:31:58;21.00;24.60
48551;DHT22;34397;51.176;6.738;2023-03-01T13:34:55;21.10;24.90
48551;DHT22;34397;51.176;6.738;2023-03-01T13:37:33;21.20;24.60
48551;DHT22;34397;51.176;6.738;2023-03-01T13:43:40;21.30;24.80
48551;DHT22;34397;51.176;6.738;2023-03-01T13:46:20;21.30;24.80
48551;DHT22;34397;51.176;6.738;2023-03-01T13:48:56;21.30;24.50
48551;DHT22;34397;51.176;6.738;2023-03-01T13:51:28;21.40;24.50
48551;DHT22;34397;51.176;6.738;2023-03-01T13:54:01;21.20;24.60
48551;DHT22;34397;51.176;6.738;2023-03-01T13:56:33;20.90;24.70
48551;DHT22;34397;51.176;6.738;2023-03-01T13:59:15;20.90;24.80
48551;DHT22;34397;51.176;6.738;2023-03-01T14:01:54;20.90;24.80
48551;DHT22;34397;51.176;6.738;2023-03-01T14:04:28;20.90;24.60
48551;DHT22;34397;51.176;6.738;2023-03-01T14:07:12;21.00;24.80
48551;DHT22;34397;51.176;6.738;2023-03-01T14:09:46;20.80;24.60
48551;DHT22;34397;51.176;6.738;2023-03-01T14:12:28;20.40;25.10
48551;DHT22;34397;51.176;6.738;2023-03-01T14:15:13;20.30;25.10
48551;DHT22;34397;51.176;6.738;2023-03-01T14:17:55;20.20;25.20
48551;DHT22;34397;51.176;6.738;2023-03-01T14:20:39;20.30;25.20
48551;DHT22;34397;51.176;6.738;2023-03-01T14:23:14;20.30;25.00
48551;DHT22;34397;51.176;6.738;2023-03-01T14:25:50;20.20;24.90
48551;DHT22;34397;51.176;6.738;2023-03-01T14:28:24;20.20;25.10
48551;DHT22;34397;51.176;6.738;2023-03-01T14:31:02;20.00;25.00
48551;DHT22;34397;51.176;6.738;2023-03-01T14:33:36;19.90;25.10
48551;DHT22;34397;51.176;6.738;2023-03-01T14:36:13;19.90;25.20
48551;DHT22;34397;51.176;6.738;2023-03-01T14:38:46;19.80;25.20
48551;DHT22;34397;51.176;6.738;2023-03-01T14:41:20;19.60;25.30
48551;DHT22;34397;51.176;6.738;2023-03-01T14:43:55;19.40;25.50
48551;DHT22;34397;51.176;6.738;2023-03-01T14:46:33;19.40;25.90
48551;DHT22;34397;51.176;6.738;2023-03-01T14:49:11;19.40;26.00
48551;DHT22;34397;51.176;6.738;2023-03-01T14:51:51;19.30;25.70
48551;DHT22;34397;51.176;6.738;2023-03-01T14:54:26;19.30;25.60
48551;DHT22;34397;51.176;6.738;2023-03-01T14:57:00;19.30;25.60
48551;DHT22;34397;51.176;6.738;2023-03-01T14:59:33;19.20;25.50
48551;DHT22;34397;51.176;6.738;2023-03-01T15:02:12;19.10;25.70
48551;DHT22;34397;51.176;6.738;2023-03-01T15:04:50;19.00;25.50
48551;DHT22;34397;51.176;6.738;2023-03-01T15:07:26;18.90;25.50
48551;DHT22;34397;51.176;6.738;2023-03-01T15:10:04;18.80;25.70
48551;DHT22;34397;51.176;6.738;2023-03-01T15:12:40;18.70;25.70
48551;DHT22;34397;51.176;6.738;2023-03-01T15:15:38;18.60;25.90
48551;DHT22;34397;51.176;6.738;2023-03-01T15:18:16;18.60;25.90
48551;DHT22;34397;51.176;6.738;2023-03-01T15:20:51;18.40;25.80
48551;DHT22;34397;51.176;6.738;2023-03-01T15:23:25;18.30;25.80
48551;DHT22;34397;51.176;6.738;2023-03-01T15:25:58;18.20;26.00
48551;DHT22;34397;51.176;6.738;2023-03-01T15:28:33;18.10;26.10
48551;DHT22;34397;51.176;6.738;2023-03-01T15:31:17;18.00;26.20
48551;DHT22;34397;51.176;6.738;2023-03-01T15:33:51;17.80;26.20
48551;DHT22;34397;51.176;6.738;2023-03-01T15:36:35;17.80;26.30
48551;DHT22;34397;51.176;6.738;2023-03-01T15:39:38;17.70;26.20
48551;DHT22;34397;51.176;6.738;2023-03-01T15:42:36;17.50;26.00
48551;DHT22;34397;51.176;6.738;2023-03-01T15:45:10;17.30;26.30
48551;DHT22;34397;51.176;6.738;2023-03-01T15:47:53;17.00;26.40
48551;DHT22;34397;51.176;6.738;2023-03-01T15:50:29;16.80;26.50
48551;DHT22;34397;51.176;6.738;2023-03-01T15:53:09;16.50;26.70
48551;DHT22;34397;51.176;6.738;2023-03-01T15:55:42;16.20;26.60
48551;DHT22;34397;51.176;6.738;2023-03-01T15:58:18;15.90;27.20
48551;DHT22;34397;51.176;6.738;2023-03-01T16:00:52;15.70;27.20
48551;DHT22;34397;51.176;6.738;2023-03-01T16:03:26;15.50;28.00
48551;DHT22;34397;51.176;6.738;2023-03-01T16:05:58;15.30;27.80
48551;DHT22;34397;51.176;6.738;2023-03-01T16:08:32;15.10;28.90
48551;DHT22;34397;51.176;6.738;2023-03-01T16:11:04;14.80;28.90
48551;DHT22;34397;51.176;6.738;2023-03-01T16:13:37;14.50;29.10
48551;DHT22;34397;51.176;6.738;2023-03-01T16:16:10;14.30;29.20
48551;DHT22;34397;51.176;6.738;2023-03-01T16:18:46;14.00;29.60
48551;DHT22;34397;51.176;6.738;2023-03-01T16:21:20;13.80;29.80
48551;DHT22;34397;51.176;6.738;2023-03-01T16:23:55;13.60;30.30
48551;DHT22;34397;51.176;6.738;2023-03-01T16:26:27;13.30;30.10
48551;DHT22;34397;51.176;6.738;2023-03-01T16:28:58;13.00;30.50
48551;DHT22;34397;51.176;6.738;2023-03-01T16:31:30;12.70;30.80
48551;DHT22;34397;51.176;6.738;2023-03-01T16:34:02;12.50;30.80
48551;DHT22;34397;51.176;6.738;2023-03-01T16:36:34;12.30;31.40
48551;DHT22;34397;51.176;6.738;2023-03-01T16:39:08;12.10;31.50
48551;DHT22;34397;51.176;6.738;2023-03-01T16:41:40;12.00;32.10
48551;DHT22;34397;51.176;6.738;2023-03-01T16:44:12;11.80;32.00
48551;DHT22;34397;51.176;6.738;2023-03-01T16:46:44;11.60;32.50